createdAt,value
2022-12-17T00:02:42.330Z,102297.69
2022-12-17T00:05:27.483Z,102292.44
2022-12-17T00:08:18.947Z,102297.69
2022-12-17T00:11:04.458Z,102297.25
2022-12-17T00:13:49.422Z,102294.94
2022-12-17T00:16:35.216Z,102301.72
2022-12-17T00:19:20.493Z,102304.44
2022-12-17T00:22:05.425Z,102306.72
2022-12-17T00:24:50.834Z,102299.22
2022-12-17T00:27:35.683Z,102311.19
2022-12-17T00:30:20.465Z,102318.19
2022-12-17T00:33:05.253Z,102312.63
2022-12-17T00:35:50.369Z,102323.63
2022-12-17T00:38:36.667Z,102322.84
2022-12-17T00:41:22.085Z,102315.00
2022-12-17T00:44:07.323Z,102316.41
2022-12-17T00:46:52.443Z,102319.38
2022-12-17T00:49:37.691Z,102328.78
2022-12-17T00:52:22.728Z,102328.41
2022-12-17T00:55:07.525Z,102334.41
2022-12-17T00:57:52.671Z,102342.50
2022-12-17T01:00:37.837Z,102330.50
2022-12-17T01:03:28.437Z,102333.13
2022-12-17T01:06:13.737Z,102335.84
2022-12-17T01:08:58.784Z,102339.31
2022-12-17T01:11:44.342Z,102337.16
2022-12-17T01:14:29.434Z,102340.41
2022-12-17T01:17:14.798Z,102342.06
2022-12-17T01:19:59.547Z,102343.25
2022-12-17T01:22:44.715Z,102337.78
2022-12-17T01:25:29.878Z,102341.50
2022-12-17T01:28:16.949Z,102346.63
2022-12-17T01:31:02.172Z,102348.03
2022-12-17T01:33:47.256Z,102344.53
2022-12-17T01:36:32.347Z,102338.09
2022-12-17T01:39:17.208Z,102351.38
2022-12-17T01:42:02.237Z,102352.44
2022-12-17T01:45:13.442Z,102351.38
2022-12-17T01:48:06.871Z,102360.22
2022-12-17T01:51:08.868Z,102365.31
2022-12-17T01:53:59.334Z,102367.19
2022-12-17T01:56:44.918Z,102363.16
2022-12-17T01:59:32.760Z,102365.00
2022-12-17T02:02:17.926Z,102365.31
2022-12-17T02:05:03.100Z,102362.28
2022-12-17T02:08:09.552Z,102359.34
2022-12-17T02:11:10.361Z,102362.28
2022-12-17T02:14:06.729Z,102373.19
2022-12-17T02:17:01.698Z,102369.03
2022-12-17T02:20:05.510Z,102373.28
2022-12-17T02:23:14.777Z,102372.72
2022-12-17T02:26:15.099Z,102374.47
2022-12-17T02:29:06.608Z,102367.69
2022-12-17T02:31:57.911Z,102370.63
2022-12-17T02:34:43.553Z,102371.72
2022-12-17T02:37:29.399Z,102372.47
2022-12-17T02:40:14.768Z,102378.47
2022-12-17T02:43:03.167Z,102380.66
2022-12-17T02:45:54.062Z,102385.13
2022-12-17T02:48:39.779Z,102381.75
2022-12-17T02:51:25.054Z,102386.19
2022-12-17T02:54:12.058Z,102387.59
2022-12-17T02:56:57.697Z,102392.06
2022-12-17T02:59:43.337Z,102385.34
2022-12-17T03:02:36.875Z,102385.34
2022-12-17T03:05:43.849Z,102379.34
2022-12-17T03:08:29.852Z,102380.63
2022-12-17T03:11:14.995Z,102385.84
2022-12-17T03:13:59.864Z,102391.41
2022-12-17T03:16:45.086Z,102400.34
2022-12-17T03:19:30.033Z,102403.72
2022-12-17T03:22:15.315Z,102401.09
2022-12-17T03:25:00.015Z,102409.38
2022-12-17T03:27:44.871Z,102403.84
2022-12-17T03:30:35.573Z,102406.47
2022-12-17T03:33:20.986Z,102400.16
2022-12-17T03:36:05.682Z,102398.63
2022-12-17T03:38:50.524Z,102395.09
2022-12-17T03:41:35.327Z,102401.09
2022-12-17T03:44:20.311Z,102397.59
2022-12-17T03:47:05.166Z,102394.97
2022-12-17T03:49:50.211Z,102397.91
2022-12-17T03:52:35.043Z,102403.91
2022-12-17T03:55:20.065Z,102404.53
2022-12-17T03:58:04.871Z,102401.81
2022-12-17T04:00:49.666Z,102397.22
2022-12-17T04:03:34.884Z,102405.69
2022-12-17T04:06:20.154Z,102405.88
2022-12-17T04:09:05.058Z,102415.25
2022-12-17T04:11:49.981Z,102412.94
2022-12-17T04:14:34.874Z,102403.91
2022-12-17T04:17:19.654Z,102404.66
2022-12-17T04:20:04.508Z,102400.84
2022-12-17T04:22:49.656Z,102403.75
2022-12-17T04:25:42.500Z,102413.81
2022-12-17T04:28:31.844Z,102417.50
2022-12-17T04:31:17.117Z,102422.41
2022-12-17T04:34:02.078Z,102420.22
2022-12-17T04:36:47.042Z,102429.91
2022-12-17T04:39:31.977Z,102436.97
2022-12-17T04:42:16.803Z,102447.78
2022-12-17T04:45:01.596Z,102459.41
2022-12-17T04:47:46.421Z,102456.47
2022-12-17T04:50:31.745Z,102453.56
2022-12-17T04:53:21.839Z,102449.09
2022-12-17T04:56:07.201Z,102456.94
2022-12-17T04:58:53.198Z,102450.63
2022-12-17T05:01:38.388Z,102452.03
2022-12-17T05:04:23.584Z,102450.50
2022-12-17T05:07:08.682Z,102462.78
2022-12-17T05:09:54.026Z,102462.78
2022-12-17T05:12:39.281Z,102469.56
2022-12-17T05:15:25.275Z,102462.16
2022-12-17T05:18:10.531Z,102464.47
2022-12-17T05:20:55.488Z,102460.63
2022-12-17T05:23:40.707Z,102462.03
2022-12-17T05:26:46.366Z,102460.84
2022-12-17T05:29:32.093Z,102454.09
2022-12-17T05:32:17.383Z,102457.78
2022-12-17T05:35:02.096Z,102461.16
2022-12-17T05:37:46.800Z,102463.00
2022-12-17T05:40:31.628Z,102461.47
2022-12-17T05:43:29.624Z,102454.09
2022-12-17T05:46:17.651Z,102463.78
2022-12-17T05:49:02.620Z,102461.59
2022-12-17T05:51:47.458Z,102457.13
2022-12-17T05:54:32.370Z,102464.22
2022-12-17T05:57:17.279Z,102459.31
2022-12-17T06:00:02.489Z,102452.56
2022-12-17T06:02:57.392Z,102467.16
2022-12-17T06:05:42.543Z,102472.78
2022-12-17T06:08:27.937Z,102464.22
2022-12-17T06:11:13.653Z,102461.16
2022-12-17T06:13:58.317Z,102462.88
2022-12-17T06:16:43.130Z,102471.03
2022-12-17T06:19:27.987Z,102472.41
2022-12-17T06:22:12.936Z,102467.19
2022-12-17T06:24:57.722Z,102472.72
2022-12-17T06:27:42.585Z,102465.53
2022-12-17T06:30:28.108Z,102458.63
2022-12-17T06:33:25.655Z,102463.84
2022-12-17T06:36:18.108Z,102462.63
2022-12-17T06:39:06.583Z,102464.78
2022-12-17T06:41:51.320Z,102474.03
2022-12-17T06:44:37.236Z,102480.00
2022-12-17T06:47:22.119Z,102485.25
2022-12-17T06:50:06.892Z,102489.38
2022-12-17T06:52:51.841Z,102483.84
2022-12-17T06:55:36.646Z,102491.69
2022-12-17T06:58:26.549Z,102493.22
2022-12-17T07:01:11.819Z,102493.97
2022-12-17T07:03:57.119Z,102506.41
2022-12-17T07:06:42.071Z,102495.97
2022-12-17T07:09:27.159Z,102509.50
2022-12-17T07:12:12.638Z,102511.66
2022-12-17T07:14:58.052Z,102521.00
2022-12-17T07:17:42.819Z,102526.25
2022-12-17T07:20:28.425Z,102532.25
2022-12-17T07:23:16.110Z,102529.16
2022-12-17T07:26:01.337Z,102529.63
2022-12-17T07:28:46.325Z,102525.16
2022-12-17T07:31:31.229Z,102533.31
2022-12-17T07:34:18.023Z,102530.25
2022-12-17T07:37:03.257Z,102537.78
2022-12-17T07:39:48.039Z,102548.53
2022-12-17T07:42:32.927Z,102550.53
2022-12-17T07:45:17.887Z,102554.53
2022-12-17T07:48:10.373Z,102554.06
2022-12-17T07:50:55.682Z,102560.97
2022-12-17T07:53:40.435Z,102556.53
2022-12-17T07:56:25.953Z,102558.69
2022-12-17T07:59:10.938Z,102560.53
2022-12-17T08:01:55.913Z,102568.81
2022-12-17T08:04:41.202Z,102560.53
2022-12-17T08:07:26.000Z,102566.50
2022-12-17T08:10:11.473Z,102564.22
2022-12-17T08:12:56.221Z,102581.88
2022-12-17T08:15:41.131Z,102590.47
2022-12-17T08:18:26.913Z,102593.56
2022-12-17T08:21:12.889Z,102601.06
2022-12-17T08:23:57.807Z,102605.09
2022-12-17T08:26:47.539Z,102609.09
2022-12-17T08:29:33.392Z,102603.84
2022-12-17T08:32:18.806Z,102599.72
2022-12-17T08:35:04.003Z,102610.94
2022-12-17T08:37:49.366Z,102615.69
2022-12-17T08:40:34.199Z,102610.16
2022-12-17T08:43:19.148Z,102614.31
2022-12-17T08:46:08.576Z,102608.78
2022-12-17T08:48:54.004Z,102610.31
2022-12-17T08:51:39.931Z,102614.44
2022-12-17T08:54:24.786Z,102611.84
2022-12-17T08:57:09.700Z,102619.38
2022-12-17T08:59:54.529Z,102611.50
2022-12-17T09:02:39.997Z,102608.59
2022-12-17T09:05:25.697Z,102611.19
2022-12-17T09:08:22.243Z,102615.66
2022-12-17T09:11:07.623Z,102623.75
2022-12-17T09:13:52.433Z,102628.03
2022-12-17T09:16:38.414Z,102621.59
2022-12-17T09:19:24.007Z,102619.59
2022-12-17T09:22:08.877Z,102625.16
2022-12-17T09:24:54.115Z,102625.03
2022-12-17T09:27:38.839Z,102626.72
2022-12-17T09:30:40.872Z,102632.41
2022-12-17T09:33:26.107Z,102649.31
2022-12-17T09:36:11.018Z,102643.78
2022-12-17T09:38:55.840Z,102647.91
2022-12-17T09:41:46.292Z,102655.00
2022-12-17T09:44:37.359Z,102665.75
2022-12-17T09:47:34.215Z,102659.13
2022-12-17T09:50:32.082Z,102661.44
2022-12-17T09:53:20.138Z,102656.50
2022-12-17T09:56:09.024Z,102647.59
2022-12-17T09:58:57.037Z,102659.88
2022-12-17T10:01:46.297Z,102665.75
2022-12-17T10:04:37.527Z,102664.84
2022-12-17T10:07:31.727Z,102666.66
2022-12-17T10:10:21.230Z,102656.50
2022-12-17T10:13:06.327Z,102653.25
2022-12-17T10:15:51.172Z,102661.69
2022-12-17T10:18:36.222Z,102648.63
2022-12-17T10:21:27.363Z,102649.06
2022-12-17T10:24:23.708Z,102647.81
2022-12-17T10:27:08.535Z,102652.75
2022-12-17T10:30:06.986Z,102648.09
2022-12-17T10:32:52.297Z,102645.94
2022-12-17T10:35:44.595Z,102646.25
2022-12-17T10:38:30.751Z,102646.56
2022-12-17T10:41:15.725Z,102655.19
2022-12-17T10:44:01.391Z,102651.34
2022-12-17T10:46:48.902Z,102671.03
2022-12-17T10:49:38.502Z,102664.25
2022-12-17T10:52:46.456Z,102669.47
2022-12-17T10:55:46.475Z,102669.78
2022-12-17T10:58:34.353Z,102672.09
2022-12-17T11:01:21.669Z,102671.16
2022-12-17T11:04:12.488Z,102669.41
2022-12-17T11:07:04.039Z,102666.94
2022-12-17T11:10:07.046Z,102669.56
2022-12-17T11:13:01.902Z,102674.16
2022-12-17T11:15:54.944Z,102681.97
2022-12-17T11:18:47.768Z,102683.16
2022-12-17T11:21:41.449Z,102682.97
2022-12-17T11:24:34.882Z,102680.03
2022-12-17T11:27:22.253Z,102670.34
2022-12-17T11:30:07.005Z,102657.72
2022-12-17T11:32:54.990Z,102658.66
2022-12-17T11:35:46.958Z,102658.66
2022-12-17T11:38:57.782Z,102661.63
2022-12-17T11:42:17.974Z,102660.25
2022-12-17T11:45:14.074Z,102670.03
2022-12-17T11:48:05.166Z,102684.13
2022-12-17T11:51:08.343Z,102686.09
2022-12-17T11:54:19.678Z,102680.56
2022-12-17T11:57:11.100Z,102678.25
2022-12-17T12:00:08.030Z,102678.06
2022-12-17T12:03:14.282Z,102678.38
2022-12-17T12:06:16.106Z,102681.06
2022-12-17T12:09:25.598Z,102679.19
2022-12-17T12:12:32.352Z,102668.88
2022-12-17T12:15:44.008Z,102680.88
2022-12-17T12:18:32.269Z,102673.47
2022-12-17T12:22:02.886Z,102668.09
2022-12-17T12:25:06.919Z,102672.38
2022-12-17T12:28:20.879Z,102673.41
2022-12-17T12:31:17.875Z,102672.91
2022-12-17T12:34:07.367Z,102670.75
2022-12-17T12:36:54.910Z,102666.78
2022-12-17T12:40:05.614Z,102672.97
2022-12-17T12:43:33.223Z,102666.78
2022-12-17T12:46:23.678Z,102666.97
2022-12-17T12:49:21.259Z,102667.09
2022-12-17T12:52:14.912Z,102666.16
2022-12-17T12:55:11.778Z,102663.28
2022-12-17T12:58:13.834Z,102660.97
2022-12-17T13:01:12.082Z,102660.78
2022-12-17T13:04:03.622Z,102663.78
2022-12-17T13:06:54.562Z,102658.84
2022-12-17T13:09:35.227Z,102667.06
2022-12-17T13:12:04.931Z,102663.56
2022-12-17T13:14:36.417Z,102653.88
2022-12-17T13:17:27.815Z,102651.75
2022-12-17T13:19:57.046Z,102655.63
2022-12-17T13:22:24.503Z,102647.28
2022-12-17T13:24:53.533Z,102655.72
2022-12-17T13:27:33.468Z,102647.28
2022-12-17T13:30:18.693Z,102654.50
2022-12-17T13:33:10.115Z,102652.47
2022-12-17T13:35:55.459Z,102635.88
2022-12-17T13:38:30.896Z,102658.97
2022-12-17T13:41:15.638Z,102656.50
2022-12-17T13:43:48.890Z,102653.28
2022-12-17T13:46:20.058Z,102659.03
2022-12-17T13:48:56.466Z,102653.19
2022-12-17T13:51:24.034Z,102654.28
2022-12-17T13:53:56.190Z,102644.59
2022-12-17T13:56:29.565Z,102643.38
2022-12-17T13:59:00.006Z,102639.03
2022-12-17T14:01:30.248Z,102639.34
2022-12-17T14:04:08.470Z,102645.53
2022-12-17T14:06:38.307Z,102649.22
2022-12-17T14:09:05.442Z,102652.59
2022-12-17T14:11:52.224Z,102644.31
2022-12-17T14:14:35.010Z,102646.16
2022-12-17T14:17:01.645Z,102647.25
2022-12-17T14:19:30.290Z,102648.50
2022-12-17T14:21:57.115Z,102652.19
2022-12-17T14:24:27.365Z,102656.19
2022-12-17T14:26:56.599Z,102661.31
2022-12-17T14:29:32.564Z,102665.19
2022-12-17T14:32:01.977Z,102674.75
2022-12-17T14:34:39.843Z,102681.34
2022-12-17T14:37:17.273Z,102680.13
2022-12-17T14:39:46.531Z,102673.81
2022-12-17T14:42:26.049Z,102681.34
2022-12-17T14:44:56.439Z,102680.44
2022-12-17T14:47:34.162Z,102680.16
2022-12-17T14:50:11.701Z,102682.00
2022-12-17T14:52:45.518Z,102680.63
2022-12-17T14:55:28.721Z,102679.56
2022-12-17T14:58:08.983Z,102684.31
2022-12-17T15:00:38.648Z,102679.25
2022-12-17T15:03:05.197Z,102686.69
2022-12-17T15:05:32.530Z,102682.84
2022-12-17T15:07:59.010Z,102681.59
2022-12-17T15:10:25.481Z,102684.53
2022-12-17T15:12:53.159Z,102676.38
2022-12-17T15:15:21.628Z,102675.31
2022-12-17T15:17:48.156Z,102687.75
2022-12-17T15:20:19.677Z,102690.53
2022-12-17T15:22:47.091Z,102695.75
2022-12-17T15:25:15.876Z,102703.75
2022-12-17T15:27:42.696Z,102698.38
2022-12-17T15:30:17.393Z,102702.38
2022-12-17T15:32:44.688Z,102705.75
2022-12-17T15:35:12.189Z,102711.28
2022-12-17T15:37:38.820Z,102711.59
2022-12-17T15:40:06.550Z,102714.06
2022-12-17T15:42:51.654Z,102715.28
2022-12-17T15:45:18.132Z,102729.88
2022-12-17T15:47:44.600Z,102726.97
2022-12-17T15:50:10.997Z,102730.81
2022-12-17T15:52:37.483Z,102733.72
2022-12-17T15:55:04.062Z,102734.50
2022-12-17T15:57:30.617Z,102738.50
2022-12-17T15:59:57.102Z,102733.91
2022-12-17T16:02:23.746Z,102738.34
2022-12-17T16:04:50.367Z,102733.75
2022-12-17T16:07:16.853Z,102729.28
2022-12-17T16:09:43.261Z,102722.53
2022-12-17T16:12:09.665Z,102729.59
2022-12-17T16:14:36.079Z,102735.91
2022-12-17T16:17:03.005Z,102752.34
2022-12-17T16:19:29.603Z,102750.19
2022-12-17T16:21:56.227Z,102753.88
2022-12-17T16:24:23.129Z,102752.78
2022-12-17T16:26:49.603Z,102750.50
2022-12-17T16:29:16.082Z,102752.94
2022-12-17T16:31:42.752Z,102744.66
2022-12-17T16:34:10.794Z,102751.88
2022-12-17T16:36:37.328Z,102744.78
2022-12-17T16:39:05.194Z,102746.78
2022-12-17T16:41:32.461Z,102752.31
2022-12-17T16:43:59.141Z,102756.28
2022-12-17T16:46:33.036Z,102757.97
2022-12-17T16:49:05.043Z,102769.66
2022-12-17T16:51:32.027Z,102758.13
2022-12-17T16:53:59.267Z,102753.38
2022-12-17T16:56:27.909Z,102752.47
2022-12-17T16:58:55.516Z,102757.06
2022-12-17T17:01:25.310Z,102762.78
2022-12-17T17:03:52.029Z,102754.94
2022-12-17T17:06:19.133Z,102754.63
2022-12-17T17:08:46.186Z,102748.78
2022-12-17T17:11:15.935Z,102762.16
2022-12-17T17:13:42.871Z,102755.06
2022-12-17T17:16:10.249Z,102759.38
2022-12-17T17:18:37.301Z,102755.38
2022-12-17T17:21:13.058Z,102756.31
2022-12-17T17:23:40.419Z,102755.69
2022-12-17T17:26:07.158Z,102765.06
2022-12-17T17:28:33.739Z,102771.50
2022-12-17T17:31:06.759Z,102770.91
2022-12-17T17:33:36.024Z,102768.59
2022-12-17T17:36:14.987Z,102764.28
2022-12-17T17:38:41.751Z,102772.53
2022-12-17T17:41:11.428Z,102756.13
2022-12-17T17:43:38.132Z,102760.56
2022-12-17T17:46:09.177Z,102760.72
2022-12-17T17:48:36.226Z,102759.47
2022-12-17T17:51:06.497Z,102762.38
2022-12-17T17:53:33.048Z,102769.91
2022-12-17T17:56:07.301Z,102770.06
2022-12-17T17:58:34.653Z,102770.81
2022-12-17T18:01:08.359Z,102772.50
2022-12-17T18:03:34.889Z,102783.84
2022-12-17T18:06:03.254Z,102772.66
2022-12-17T18:08:35.007Z,102776.34
2022-12-17T18:11:03.224Z,102777.88
2022-12-17T18:13:48.298Z,102785.09
2022-12-17T18:16:15.491Z,102790.78
2022-12-17T18:18:42.187Z,102784.78
2022-12-17T18:21:12.906Z,102795.41
2022-12-17T18:23:40.561Z,102799.56
2022-12-17T18:26:13.665Z,102802.47
2022-12-17T18:28:42.109Z,102806.44
2022-12-17T18:31:11.809Z,102808.59
2022-12-17T18:33:41.294Z,102800.41
2022-12-17T18:36:09.830Z,102797.03
2022-12-17T18:38:37.141Z,102797.03
2022-12-17T18:41:31.437Z,102786.13
2022-12-17T18:44:03.078Z,102784.91
2022-12-17T18:46:30.608Z,102786.25
2022-12-17T18:49:03.117Z,102791.19
2022-12-17T18:51:29.555Z,102800.84
2022-12-17T18:53:58.001Z,102793.31
2022-12-17T18:56:59.022Z,102791.78
2022-12-17T18:59:16.019Z,102797.78
2022-12-17T19:01:43.644Z,102800.38
2022-12-17T19:04:13.429Z,102801.16
2022-12-17T19:06:40.944Z,102804.81
2022-12-17T19:09:08.177Z,102807.72
2022-12-17T19:11:40.444Z,102811.72
2022-12-17T19:14:09.893Z,102813.84
2022-12-17T19:16:36.458Z,102810.03
2022-12-17T19:19:05.185Z,102817.97
2022-12-17T19:21:33.950Z,102812.28
2022-12-17T19:24:05.548Z,102814.44
2022-12-17T19:26:32.946Z,102815.03
2022-12-17T19:29:00.901Z,102809.63
2022-12-17T19:31:31.366Z,102820.50
2022-12-17T19:33:59.739Z,102820.59
2022-12-17T19:36:28.601Z,102816.28
2022-12-17T19:39:00.263Z,102817.34
2022-12-17T19:41:28.240Z,102819.97
2022-12-17T19:44:00.313Z,102816.28
2022-12-17T19:46:27.581Z,102817.50
2022-12-17T19:48:54.314Z,102826.53
2022-12-17T19:51:25.907Z,102829.91
2022-12-17T19:53:52.547Z,102827.78
2022-12-17T19:56:27.526Z,102826.72
2022-12-17T19:58:56.661Z,102837.63
2022-12-17T20:01:28.176Z,102829.78
2022-12-17T20:03:55.278Z,102837.91
2022-12-17T20:06:24.570Z,102839.28
2022-12-17T20:08:51.387Z,102846.31
2022-12-17T20:11:34.189Z,102836.97
2022-12-17T20:14:04.673Z,102844.31
2022-12-17T20:16:35.043Z,102849.84
2022-12-17T20:19:02.727Z,102846.47
2022-12-17T20:21:29.443Z,102847.34
2022-12-17T20:23:56.267Z,102851.50
2022-12-17T20:26:23.657Z,102854.69
2022-12-17T20:28:50.165Z,102857.72
2022-12-17T20:31:17.985Z,102863.03
2022-12-17T20:33:44.454Z,102856.41
2022-12-17T20:36:16.622Z,102858.34
2022-12-17T20:38:43.955Z,102857.38
2022-12-17T20:41:12.735Z,102852.66
2022-12-17T20:43:39.841Z,102845.72
2022-12-17T20:46:09.384Z,102844.50
2022-12-17T20:48:37.705Z,102845.84
2022-12-17T20:51:18.676Z,102842.00
2022-12-17T20:53:47.265Z,102845.00
2022-12-17T20:56:16.937Z,102846.66
2022-12-17T20:58:44.407Z,102843.56
2022-12-17T21:01:20.408Z,102840.06
2022-12-17T21:03:49.473Z,102847.22
2022-12-17T21:06:22.041Z,102840.94
2022-12-17T21:08:51.536Z,102843.53
2022-12-17T21:11:21.338Z,102850.75
2022-12-17T21:13:48.091Z,102851.66
2022-12-17T21:16:17.938Z,102864.66
2022-12-17T21:18:47.374Z,102852.34
2022-12-17T21:21:18.085Z,102865.75
2022-12-17T21:23:47.516Z,102850.13
2022-12-17T21:26:24.207Z,102844.34
2022-12-17T21:28:54.062Z,102858.72
2022-12-17T21:31:33.000Z,102863.16
2022-12-17T21:34:02.669Z,102867.59
2022-12-17T21:36:31.171Z,102876.34
2022-12-17T21:38:58.526Z,102873.47
2022-12-17T21:41:28.051Z,102875.28
2022-12-17T21:43:56.226Z,102884.66
2022-12-17T21:46:23.598Z,102878.00
2022-12-17T21:48:50.721Z,102881.75
2022-12-17T21:51:17.505Z,102888.31
2022-12-17T21:53:44.289Z,102884.94
2022-12-17T21:56:14.294Z,102893.06
2022-12-17T21:58:42.406Z,102900.09
2022-12-17T22:01:18.364Z,102902.69
2022-12-17T22:03:46.757Z,102895.66
2022-12-17T22:06:15.990Z,102903.94
2022-12-17T22:08:43.802Z,102904.81
2022-12-17T22:11:19.213Z,102903.06
2022-12-17T22:14:08.624Z,102911.97
2022-12-17T22:16:42.480Z,102918.53
2022-12-17T22:19:11.096Z,102917.47
2022-12-17T22:21:40.448Z,102919.78
2022-12-17T22:24:07.395Z,102919.59
2022-12-17T22:26:34.017Z,102913.91
2022-12-17T22:29:00.800Z,102915.75
2022-12-17T22:31:45.735Z,102913.22
2022-12-17T22:34:59.322Z,102906.75
2022-12-17T22:39:07.829Z,102909.06
2022-12-17T22:41:50.474Z,102912.94
2022-12-17T22:44:43.212Z,102920.25
2022-12-17T22:45:39.640Z,102911.47
2022-12-17T22:48:07.989Z,102909.94
2022-12-17T22:50:43.582Z,102901.66
2022-12-17T22:53:21.873Z,102895.56
2022-12-17T22:55:49.380Z,102882.44
2022-12-17T22:58:16.593Z,102873.69
2022-12-17T23:00:43.339Z,102893.25
2022-12-17T23:03:09.918Z,102901.53
2022-12-17T23:05:36.579Z,102908.75
2022-12-17T23:08:03.044Z,102915.50
2022-12-17T23:10:29.588Z,102919.34
2022-12-17T23:12:56.251Z,102913.00
2022-12-17T23:15:29.667Z,102909.25
2022-12-17T23:17:59.394Z,102914.75
2022-12-17T23:20:27.830Z,102918.13
2022-12-17T23:22:54.640Z,102914.75
2022-12-17T23:25:21.816Z,102903.84
2022-12-17T23:27:48.860Z,102907.22
2022-12-17T23:30:17.013Z,102901.44
2022-12-17T23:32:43.642Z,102905.13
2022-12-17T23:35:11.823Z,102913.97
2022-12-17T23:37:40.142Z,102914.25
2022-12-17T23:40:13.243Z,102924.69
2022-12-17T23:42:39.728Z,102921.88
2022-12-17T23:45:07.569Z,102911.25
2022-12-17T23:47:34.402Z,102915.97
2022-12-17T23:50:00.899Z,102907.13
2022-12-17T23:52:27.635Z,102899.81
2022-12-17T23:54:54.132Z,102896.44
2022-12-17T23:57:20.747Z,102892.56
2022-12-17T23:59:49.950Z,102891.78
